sensor_id;sensor_type;location;lat;lon;timestamp;noise_LAeq;noise_LA_min;noise_LA_max;noise_LA01;noise_LA95
46749;Laerm;33775;47.992;11.864;2022-08-03T00:02:21;37.57;30.89;40.23;;
46749;Laerm;33775;47.992;11.864;2022-08-03T00:04:47;37.55;30.89;40.13;;
46749;Laerm;33775;47.992;11.864;2022-08-03T00:07:12;37.66;30.89;40.03;;
46749;Laerm;33775;47.992;11.864;2022-08-03T00:09:37;37.71;31.68;39.81;;
46749;Laerm;33775;47.992;11.864;2022-08-03T00:12:02;37.68;29.57;40.13;;
46749;Laerm;33775;47.992;11.864;2022-08-03T00:14:28;37.63;30.89;39.92;;
46749;Laerm;33775;47.992;11.864;2022-08-03T00:16:53;37.66;32.35;40.53;;
46749;Laerm;33775;47.992;11.864;2022-08-03T00:19:18;37.77;30.89;39.92;;
46749;Laerm;33775;47.992;11.864;2022-08-03T00:21:43;37.78;32.35;40.43;;
46749;Laerm;33775;47.992;11.864;2022-08-03T00:24:09;37.85;31.68;40.13;;
46749;Laerm;33775;47.992;11.864;2022-08-03T00:26:34;37.80;31.68;40.03;;
46749;Laerm;33775;47.992;11.864;2022-08-03T00:28:59;37.74;32.35;40.18;;
46749;Laerm;33775;47.992;11.864;2022-08-03T00:31:24;37.58;30.89;40.03;;
46749;Laerm;33775;47.992;11.864;2022-08-03T00:33:49;37.55;29.92;40.03;;
46749;Laerm;33775;47.992;11.864;2022-08-03T00:36:15;37.59;30.89;40.13;;
46749;Laerm;33775;47.992;11.864;2022-08-03T00:38:40;37.62;30.89;39.81;;
46749;Laerm;33775;47.992;11.864;2022-08-03T00:41:05;37.69;30.89;40.33;;
46749;Laerm;33775;47.992;11.864;2022-08-03T00:43:30;37.67;32.35;40.27;;
46749;Laerm;33775;47.992;11.864;2022-08-03T00:45:55;37.60;32.35;40.03;;
46749;Laerm;33775;47.992;11.864;2022-08-03T00:48:21;37.59;29.92;39.92;;
46749;Laerm;33775;47.992;11.864;2022-08-03T00:50:46;37.63;28.67;40.33;;
46749;Laerm;33775;47.992;11.864;2022-08-03T00:53:12;37.53;32.35;40.23;;
46749;Laerm;33775;47.992;11.864;2022-08-03T00:55:38;37.54;31.68;40.03;;
46749;Laerm;33775;47.992;11.864;2022-08-03T00:58:03;37.62;31.68;40.13;;
46749;Laerm;33775;47.992;11.864;2022-08-03T01:00:31;37.65;31.68;39.92;;
46749;Laerm;33775;47.992;11.864;2022-08-03T01:02:56;37.64;31.68;40.23;;
46749;Laerm;33775;47.992;11.864;2022-08-03T01:05:21;37.56;30.89;40.23;;
46749;Laerm;33775;47.992;11.864;2022-08-03T01:17:43;37.58;28.67;40.33;;
46749;Laerm;33775;47.992;11.864;2022-08-03T01:20:12;37.71;30.89;40.03;;
46749;Laerm;33775;47.992;11.864;2022-08-03T01:30:20;37.63;31.68;40.03;;
46749;Laerm;33775;47.992;11.864;2022-08-03T01:32:56;37.62;31.68;40.13;;
46749;Laerm;33775;47.992;11.864;2022-08-03T01:35:26;37.64;26.91;40.13;;
46749;Laerm;33775;47.992;11.864;2022-08-03T01:37:55;37.69;32.35;40.03;;
46749;Laerm;33775;47.992;11.864;2022-08-03T01:40:21;37.71;31.68;40.03;;
46749;Laerm;33775;47.992;11.864;2022-08-03T01:42:49;38.09;31.68;63.83;;
46749;Laerm;33775;47.992;11.864;2022-08-03T01:45:15;37.67;31.68;39.92;;
46749;Laerm;33775;47.992;11.864;2022-08-03T01:47:43;37.71;31.68;40.13;;
46749;Laerm;33775;47.992;11.864;2022-08-03T01:50:09;37.57;29.92;40.03;;
46749;Laerm;33775;47.992;11.864;2022-08-03T01:52:36;37.55;31.68;40.43;;
46749;Laerm;33775;47.992;11.864;2022-08-03T01:55:03;37.62;31.68;40.03;;
46749;Laerm;33775;47.992;11.864;2022-08-03T01:57:29;37.65;31.68;40.03;;
46749;Laerm;33775;47.992;11.864;2022-08-03T01:59:54;37.53;31.68;39.81;;
46749;Laerm;33775;47.992;11.864;2022-08-03T02:02:21;37.67;26.91;39.81;;
46749;Laerm;33775;47.992;11.864;2022-08-03T02:04:46;37.68;31.68;40.03;;
46749;Laerm;33775;47.992;11.864;2022-08-03T02:07:13;37.70;30.89;40.03;;
46749;Laerm;33775;47.992;11.864;2022-08-03T02:09:39;37.72;31.68;40.03;;
46749;Laerm;33775;47.992;11.864;2022-08-03T02:12:08;37.73;30.89;39.92;;
46749;Laerm;33775;47.992;11.864;2022-08-03T02:14:34;37.80;30.89;50.70;;
46749;Laerm;33775;47.992;11.864;2022-08-03T02:17:00;38.24;23.90;53.99;;
46749;Laerm;33775;47.992;11.864;2022-08-03T02:19:25;38.46;29.92;51.13;;
46749;Laerm;33775;47.992;11.864;2022-08-03T02:21:51;38.29;30.89;52.15;;
46749;Laerm;33775;47.992;11.864;2022-08-03T02:24:17;39.06;32.35;58.93;;
46749;Laerm;33775;47.992;11.864;2022-08-03T02:26:42;38.40;32.93;49.95;;
46749;Laerm;33775;47.992;11.864;2022-08-03T02:29:12;39.88;30.89;58.28;;
46749;Laerm;33775;47.992;11.864;2022-08-03T02:31:39;38.96;32.93;51.89;;
46749;Laerm;33775;47.992;11.864;2022-08-03T02:34:07;37.88;30.89;40.03;;
46749;Laerm;33775;47.992;11.864;2022-08-03T02:36:34;37.74;28.67;40.43;;
46749;Laerm;33775;47.992;11.864;2022-08-03T02:39:01;37.72;31.68;39.92;;
46749;Laerm;33775;47.992;11.864;2022-08-03T02:42:09;37.70;32.35;40.13;;
46749;Laerm;33775;47.992;11.864;2022-08-03T02:44:16;37.71;29.92;39.92;;
46749;Laerm;33775;47.992;11.864;2022-08-03T02:46:43;37.80;32.35;40.13;;
46749;Laerm;33775;47.992;11.864;2022-08-03T02:49:09;37.81;31.68;40.23;;
46749;Laerm;33775;47.992;11.864;2022-08-03T02:51:35;37.82;30.89;40.03;;
46749;Laerm;33775;47.992;11.864;2022-08-03T02:54:03;37.83;31.68;40.13;;
46749;Laerm;33775;47.992;11.864;2022-08-03T02:56:29;37.87;30.89;40.13;;
46749;Laerm;33775;47.992;11.864;2022-08-03T02:58:55;37.85;32.35;40.13;;
46749;Laerm;33775;47.992;11.864;2022-08-03T03:01:21;37.81;30.89;39.92;;
46749;Laerm;33775;47.992;11.864;2022-08-03T03:03:47;37.75;32.35;40.13;;
46749;Laerm;33775;47.992;11.864;2022-08-03T03:06:14;37.73;31.68;40.03;;
46749;Laerm;33775;47.992;11.864;2022-08-03T03:08:40;37.76;31.68;39.92;;
46749;Laerm;33775;47.992;11.864;2022-08-03T03:11:06;37.77;29.92;40.43;;
46749;Laerm;33775;47.992;11.864;2022-08-03T03:13:31;37.78;29.92;40.03;;
46749;Laerm;33775;47.992;11.864;2022-08-03T03:16:02;37.77;30.89;40.03;;
46749;Laerm;33775;47.992;11.864;2022-08-03T03:18:27;37.77;29.92;40.03;;
46749;Laerm;33775;47.992;11.864;2022-08-03T03:20:54;37.76;31.68;39.92;;
46749;Laerm;33775;47.992;11.864;2022-08-03T03:23:20;37.79;31.68;40.53;;
46749;Laerm;33775;47.992;11.864;2022-08-03T03:25:46;37.79;32.93;40.03;;
46749;Laerm;33775;47.992;11.864;2022-08-03T03:28:11;37.80;30.89;39.92;;
46749;Laerm;33775;47.992;11.864;2022-08-03T03:30:36;37.80;30.89;40.03;;
46749;Laerm;33775;47.992;11.864;2022-08-03T03:33:02;37.69;31.68;40.13;;
46749;Laerm;33775;47.992;11.864;2022-08-03T03:35:27;37.69;31.68;40.03;;
46749;Laerm;33775;47.992;11.864;2022-08-03T03:37:52;37.79;29.92;40.03;;
46749;Laerm;33775;47.992;11.864;2022-08-03T03:40:18;37.80;32.35;40.03;;
46749;Laerm;33775;47.992;11.864;2022-08-03T03:42:43;37.92;31.68;43.58;;
46749;Laerm;33775;47.992;11.864;2022-08-03T03:45:08;37.86;32.93;40.71;;
46749;Laerm;33775;47.992;11.864;2022-08-03T03:47:34;37.92;29.92;40.23;;
46749;Laerm;33775;47.992;11.864;2022-08-03T03:50:00;37.94;28.67;40.03;;
46749;Laerm;33775;47.992;11.864;2022-08-03T03:52:25;37.85;31.68;40.23;;
46749;Laerm;33775;47.992;11.864;2022-08-03T03:54:50;37.70;31.68;40.13;;
46749;Laerm;33775;47.992;11.864;2022-08-03T03:57:16;37.71;30.89;40.33;;
46749;Laerm;33775;47.992;11.864;2022-08-03T03:59:41;37.60;28.67;40.23;;
46749;Laerm;33775;47.992;11.864;2022-08-03T04:02:07;37.72;31.68;39.81;;
46749;Laerm;33775;47.992;11.864;2022-08-03T04:04:33;37.79;31.68;39.92;;
46749;Laerm;33775;47.992;11.864;2022-08-03T04:07:17;37.75;31.68;40.03;;
46749;Laerm;33775;47.992;11.864;2022-08-03T04:10:02;37.74;29.92;40.13;;
46749;Laerm;33775;47.992;11.864;2022-08-03T04:12:46;37.70;29.92;40.03;;
46749;Laerm;33775;47.992;11.864;2022-08-03T04:15:12;37.65;31.68;40.03;;
46749;Laerm;33775;47.992;11.864;2022-08-03T04:17:38;37.57;31.68;39.92;;
46749;Laerm;33775;47.992;11.864;2022-08-03T04:20:04;37.47;30.89;40.03;;
46749;Laerm;33775;47.992;11.864;2022-08-03T04:22:29;37.59;30.89;39.92;;
46749;Laerm;33775;47.992;11.864;2022-08-03T04:25:00;37.55;30.89;39.70;;
46749;Laerm;33775;47.992;11.864;2022-08-03T04:27:28;37.54;31.68;39.81;;
46749;Laerm;33775;47.992;11.864;2022-08-03T04:29:54;37.66;28.67;40.23;;
46749;Laerm;33775;47.992;11.864;2022-08-03T04:32:21;37.71;31.68;40.53;;
46749;Laerm;33775;47.992;11.864;2022-08-03T04:34:49;37.73;29.92;41.61;;
46749;Laerm;33775;47.992;11.864;2022-08-03T04:37:18;37.62;29.92;39.92;;
46749;Laerm;33775;47.992;11.864;2022-08-03T04:39:45;37.59;29.92;40.13;;
46749;Laerm;33775;47.992;11.864;2022-08-03T04:42:13;37.62;29.92;39.81;;
46749;Laerm;33775;47.992;11.864;2022-08-03T04:44:39;37.66;30.89;40.13;;
46749;Laerm;33775;47.992;11.864;2022-08-03T04:47:05;37.66;32.35;39.92;;
46749;Laerm;33775;47.992;11.864;2022-08-03T04:49:31;37.63;30.89;39.92;;
46749;Laerm;33775;47.992;11.864;2022-08-03T04:51:57;37.64;31.68;40.43;;
46749;Laerm;33775;47.992;11.864;2022-08-03T04:54:22;37.66;32.35;41.14;;
46749;Laerm;33775;47.992;11.864;2022-08-03T04:56:47;37.70;31.68;41.30;;
46749;Laerm;33775;47.992;11.864;2022-08-03T04:59:12;37.70;30.89;40.13;;
46749;Laerm;33775;47.992;11.864;2022-08-03T05:01:40;37.69;29.92;40.43;;
46749;Laerm;33775;47.992;11.864;2022-08-03T05:04:06;37.54;30.89;40.13;;
46749;Laerm;33775;47.992;11.864;2022-08-03T05:06:31;37.29;30.89;39.92;;
46749;Laerm;33775;47.992;11.864;2022-08-03T05:08:56;37.44;30.89;39.92;;
46749;Laerm;33775;47.992;11.864;2022-08-03T05:11:21;37.45;26.91;40.23;;
46749;Laerm;33775;47.992;11.864;2022-08-03T05:13:47;37.44;29.92;40.08;;
46749;Laerm;33775;47.992;11.864;2022-08-03T05:16:12;37.44;28.67;40.03;;
46749;Laerm;33775;47.992;11.864;2022-08-03T05:18:38;37.44;30.89;40.03;;
46749;Laerm;33775;47.992;11.864;2022-08-03T05:21:03;37.26;31.68;40.13;;
46749;Laerm;33775;47.992;11.864;2022-08-03T05:23:29;37.26;29.92;39.81;;
46749;Laerm;33775;47.992;11.864;2022-08-03T05:25:54;37.27;30.89;40.03;;
46749;Laerm;33775;47.992;11.864;2022-08-03T05:28:19;37.34;30.89;40.03;;
46749;Laerm;33775;47.992;11.864;2022-08-03T05:30:44;37.37;30.89;39.81;;
46749;Laerm;33775;47.992;11.864;2022-08-03T05:33:10;37.22;29.92;39.70;;
46749;Laerm;33775;47.992;11.864;2022-08-03T05:35:35;37.15;26.91;39.92;;
46749;Laerm;33775;47.992;11.864;2022-08-03T05:38:03;37.16;28.67;39.81;;
46749;Laerm;33775;47.992;11.864;2022-08-03T05:40:28;36.82;30.89;40.03;;
46749;Laerm;33775;47.992;11.864;2022-08-03T05:42:53;36.73;28.67;39.46;;
46749;Laerm;33775;47.992;11.864;2022-08-03T05:45:18;36.60;29.92;39.58;;
46749;Laerm;33775;47.992;11.864;2022-08-03T05:47:44;36.66;28.67;39.81;;
46749;Laerm;33775;47.992;11.864;2022-08-03T05:50:13;36.75;31.68;40.03;;
46749;Laerm;33775;47.992;11.864;2022-08-03T05:52:39;36.78;31.68;40.03;;
46749;Laerm;33775;47.992;11.864;2022-08-03T05:55:07;36.76;31.68;39.58;;
46749;Laerm;33775;47.992;11.864;2022-08-03T05:57:32;36.72;30.89;39.70;;
46749;Laerm;33775;47.992;11.864;2022-08-03T05:59:58;36.71;26.91;39.81;;
46749;Laerm;33775;47.992;11.864;2022-08-03T06:02:23;36.72;30.89;40.53;;
46749;Laerm;33775;47.992;11.864;2022-08-03T06:04:48;36.72;29.92;39.92;;
46749;Laerm;33775;47.992;11.864;2022-08-03T06:07:13;36.72;30.89;40.03;;
46749;Laerm;33775;47.992;11.864;2022-08-03T06:09:39;36.70;29.92;39.58;;
46749;Laerm;33775;47.992;11.864;2022-08-03T06:12:05;36.70;29.92;39.58;;
46749;Laerm;33775;47.992;11.864;2022-08-03T06:14:30;36.68;30.89;39.58;;
46749;Laerm;33775;47.992;11.864;2022-08-03T06:16:56;36.68;30.89;39.35;;
46749;Laerm;33775;47.992;11.864;2022-08-03T06:19:21;36.73;29.92;39.58;;
46749;Laerm;33775;47.992;11.864;2022-08-03T06:21:47;36.75;29.92;39.58;;
46749;Laerm;33775;47.992;11.864;2022-08-03T06:24:12;36.75;30.89;39.58;;
46749;Laerm;33775;47.992;11.864;2022-08-03T06:26:37;36.74;30.89;39.58;;
46749;Laerm;33775;47.992;11.864;2022-08-03T06:29:02;36.70;31.68;39.81;;
46749;Laerm;33775;47.992;11.864;2022-08-03T06:31:27;36.60;26.91;40.03;;
46749;Laerm;33775;47.992;11.864;2022-08-03T06:33:54;36.57;29.92;39.92;;
46749;Laerm;33775;47.992;11.864;2022-08-03T06:36:19;36.53;30.89;39.70;;
46749;Laerm;33775;47.992;11.864;2022-08-03T06:38:44;36.54;29.92;39.46;;
46749;Laerm;33775;47.992;11.864;2022-08-03T06:41:10;36.57;29.92;39.92;;
46749;Laerm;33775;47.992;11.864;2022-08-03T06:43:35;36.59;29.57;39.70;;
46749;Laerm;33775;47.992;11.864;2022-08-03T06:46:01;36.64;29.92;39.81;;
46749;Laerm;33775;47.992;11.864;2022-08-03T06:48:27;36.58;30.89;39.92;;
46749;Laerm;33775;47.992;11.864;2022-08-03T06:50:52;36.57;31.68;39.92;;
46749;Laerm;33775;47.992;11.864;2022-08-03T06:53:17;36.57;26.91;39.58;;
46749;Laerm;33775;47.992;11.864;2022-08-03T06:55:42;36.53;26.91;39.92;;
46749;Laerm;33775;47.992;11.864;2022-08-03T06:58:08;36.51;28.67;39.70;;
46749;Laerm;33775;47.992;11.864;2022-08-03T07:00:33;36.50;29.92;39.58;;
46749;Laerm;33775;47.992;11.864;2022-08-03T07:02:58;36.51;28.67;39.92;;
46749;Laerm;33775;47.992;11.864;2022-08-03T07:05:23;36.49;29.92;39.34;;
46749;Laerm;33775;47.992;11.864;2022-08-03T07:07:49;36.58;30.54;39.46;;
46749;Laerm;33775;47.992;11.864;2022-08-03T07:10:14;36.61;30.89;39.70;;
46749;Laerm;33775;47.992;11.864;2022-08-03T07:12:39;36.74;30.89;39.46;;
46749;Laerm;33775;47.992;11.864;2022-08-03T07:15:05;36.87;31.68;39.46;;
46749;Laerm;33775;47.992;11.864;2022-08-03T07:17:32;37.03;30.89;40.03;;
46749;Laerm;33775;47.992;11.864;2022-08-03T07:19:58;37.13;31.68;39.58;;
46749;Laerm;33775;47.992;11.864;2022-08-03T07:22:23;37.19;32.35;40.03;;
46749;Laerm;33775;47.992;11.864;2022-08-03T07:24:49;37.27;32.93;39.81;;
46749;Laerm;33775;47.992;11.864;2022-08-03T07:27:15;37.30;33.44;40.03;;
46749;Laerm;33775;47.992;11.864;2022-08-03T07:29:40;37.29;32.58;40.03;;
46749;Laerm;33775;47.992;11.864;2022-08-03T07:32:05;37.32;33.44;40.23;;
46749;Laerm;33775;47.992;11.864;2022-08-03T07:34:30;37.32;32.93;40.03;;
46749;Laerm;33775;47.992;11.864;2022-08-03T07:36:56;37.34;32.93;39.92;;
46749;Laerm;33775;47.992;11.864;2022-08-03T07:39:21;37.38;31.68;40.13;;
46749;Laerm;33775;47.992;11.864;2022-08-03T07:41:46;37.40;33.44;40.13;;
46749;Laerm;33775;47.992;11.864;2022-08-03T07:44:14;37.40;32.93;40.03;;
46749;Laerm;33775;47.992;11.864;2022-08-03T07:46:39;37.43;32.93;40.13;;
46749;Laerm;33775;47.992;11.864;2022-08-03T07:49:04;37.44;33.44;40.33;;
46749;Laerm;33775;47.992;11.864;2022-08-03T07:51:29;37.46;33.09;40.33;;
46749;Laerm;33775;47.992;11.864;2022-08-03T07:53:54;37.48;33.44;39.92;;
46749;Laerm;33775;47.992;11.864;2022-08-03T07:56:21;37.47;33.90;40.13;;
46749;Laerm;33775;47.992;11.864;2022-08-03T07:58:47;37.46;32.35;40.03;;
46749;Laerm;33775;47.992;11.864;2022-08-03T08:01:12;37.46;33.90;39.92;;
46749;Laerm;33775;47.992;11.864;2022-08-03T08:03:37;37.48;32.35;40.13;;
46749;Laerm;33775;47.992;11.864;2022-08-03T08:06:02;37.49;33.90;40.03;;
46749;Laerm;33775;47.992;11.864;2022-08-03T08:08:27;37.50;32.93;40.23;;
46749;Laerm;33775;47.992;11.864;2022-08-03T08:10:52;37.51;32.35;40.13;;
46749;Laerm;33775;47.992;11.864;2022-08-03T08:13:18;37.53;32.93;40.23;;
46749;Laerm;33775;47.992;11.864;2022-08-03T08:15:43;37.53;33.09;40.03;;
46749;Laerm;33775;47.992;11.864;2022-08-03T08:18:08;37.54;33.90;40.03;;
46749;Laerm;33775;47.992;11.864;2022-08-03T08:20:34;37.55;33.90;40.03;;
46749;Laerm;33775;47.992;11.864;2022-08-03T08:23:02;37.57;33.90;40.03;;
46749;Laerm;33775;47.992;11.864;2022-08-03T08:25:28;37.57;31.68;40.23;;
46749;Laerm;33775;47.992;11.864;2022-08-03T08:27:54;37.54;33.44;40.23;;
46749;Laerm;33775;47.992;11.864;2022-08-03T08:30:20;37.57;33.90;40.23;;
46749;Laerm;33775;47.992;11.864;2022-08-03T08:32:46;37.59;33.44;40.43;;
46749;Laerm;33775;47.992;11.864;2022-08-03T08:35:11;37.58;32.35;40.03;;
46749;Laerm;33775;47.992;11.864;2022-08-03T08:37:37;37.57;33.90;40.33;;
46749;Laerm;33775;47.992;11.864;2022-08-03T08:40:03;37.55;33.44;40.13;;
46749;Laerm;33775;47.992;11.864;2022-08-03T08:42:28;37.57;33.44;40.03;;
46749;Laerm;33775;47.992;11.864;2022-08-03T08:44:54;37.57;32.93;40.13;;
46749;Laerm;33775;47.992;11.864;2022-08-03T08:47:22;37.55;33.44;40.23;;
46749;Laerm;33775;47.992;11.864;2022-08-03T08:49:48;37.59;33.55;40.33;;
46749;Laerm;33775;47.992;11.864;2022-08-03T08:52:16;37.57;32.93;40.80;;
46749;Laerm;33775;47.992;11.864;2022-08-03T08:54:43;37.58;32.35;40.13;;
46749;Laerm;33775;47.992;11.864;2022-08-03T08:57:09;37.61;33.44;40.71;;
46749;Laerm;33775;47.992;11.864;2022-08-03T08:59:35;37.60;33.09;40.13;;
46749;Laerm;33775;47.992;11.864;2022-08-03T09:02:00;37.64;33.44;40.43;;
46749;Laerm;33775;47.992;11.864;2022-08-03T09:04:27;37.59;33.44;40.13;;
46749;Laerm;33775;47.992;11.864;2022-08-03T09:06:52;37.63;33.44;40.33;;
46749;Laerm;33775;47.992;11.864;2022-08-03T09:09:18;37.59;33.44;40.13;;
46749;Laerm;33775;47.992;11.864;2022-08-03T09:11:43;37.61;33.44;40.36;;
46749;Laerm;33775;47.992;11.864;2022-08-03T09:14:09;37.61;33.44;40.43;;
46749;Laerm;33775;47.992;11.864;2022-08-03T09:16:34;37.59;33.44;40.13;;
46749;Laerm;33775;47.992;11.864;2022-08-03T09:19:10;37.60;32.93;40.33;;
46749;Laerm;33775;47.992;11.864;2022-08-03T09:21:36;37.63;33.44;40.43;;
46749;Laerm;33775;47.992;11.864;2022-08-03T09:24:02;37.61;32.93;40.80;;
46749;Laerm;33775;47.992;11.864;2022-08-03T09:26:28;37.60;33.90;40.71;;
46749;Laerm;33775;47.992;11.864;2022-08-03T09:31:19;37.62;33.90;40.13;;
46749;Laerm;33775;47.992;11.864;2022-08-03T09:33:52;37.62;33.90;40.13;;
46749;Laerm;33775;47.992;11.864;2022-08-03T09:36:35;37.65;29.92;40.33;;
46749;Laerm;33775;47.992;11.864;2022-08-03T09:39:02;37.62;32.93;40.33;;
46749;Laerm;33775;47.992;11.864;2022-08-03T09:41:29;37.64;31.68;40.53;;
46749;Laerm;33775;47.992;11.864;2022-08-03T09:43:54;37.68;33.44;40.43;;
46749;Laerm;33775;47.992;11.864;2022-08-03T09:46:21;37.64;32.93;40.13;;
46749;Laerm;33775;47.992;11.864;2022-08-03T09:48:46;37.63;33.44;40.71;;
46749;Laerm;33775;47.992;11.864;2022-08-03T09:51:11;37.61;33.44;40.53;;
46749;Laerm;33775;47.992;11.864;2022-08-03T09:53:42;37.64;32.93;40.27;;
46749;Laerm;33775;47.992;11.864;2022-08-03T09:56:08;37.60;33.90;40.23;;
46749;Laerm;33775;47.992;11.864;2022-08-03T09:58:33;37.61;33.90;40.33;;
46749;Laerm;33775;47.992;11.864;2022-08-03T10:01:08;37.65;32.93;40.27;;
46749;Laerm;33775;47.992;11.864;2022-08-03T10:03:35;37.60;33.44;40.08;;
46749;Laerm;33775;47.992;11.864;2022-08-03T10:06:16;37.59;32.35;40.13;;
46749;Laerm;33775;47.992;11.864;2022-08-03T10:08:43;37.59;32.93;40.03;;
46749;Laerm;33775;47.992;11.864;2022-08-03T10:11:08;37.57;33.44;40.33;;
46749;Laerm;33775;47.992;11.864;2022-08-03T10:13:33;37.59;32.35;40.13;;
46749;Laerm;33775;47.992;11.864;2022-08-03T10:16:00;37.62;33.90;40.43;;
46749;Laerm;33775;47.992;11.864;2022-08-03T10:18:28;37.62;33.44;40.03;;
46749;Laerm;33775;47.992;11.864;2022-08-03T10:20:54;37.64;33.44;40.53;;
46749;Laerm;33775;47.992;11.864;2022-08-03T10:23:22;37.62;33.44;40.33;;
46749;Laerm;33775;47.992;11.864;2022-08-03T10:25:51;37.62;33.44;40.13;;
46749;Laerm;33775;47.992;11.864;2022-08-03T10:28:17;37.65;32.93;40.23;;
46749;Laerm;33775;47.992;11.864;2022-08-03T10:30:43;37.64;33.90;40.62;;
46749;Laerm;33775;47.992;11.864;2022-08-03T10:33:13;37.63;33.44;40.23;;
46749;Laerm;33775;47.992;11.864;2022-08-03T10:35:39;37.66;33.90;40.33;;
46749;Laerm;33775;47.992;11.864;2022-08-03T10:38:07;37.62;32.93;40.03;;
46749;Laerm;33775;47.992;11.864;2022-08-03T10:40:33;37.67;32.93;40.62;;
46749;Laerm;33775;47.992;11.864;2022-08-03T10:43:02;37.61;33.44;40.62;;
46749;Laerm;33775;47.992;11.864;2022-08-03T10:45:28;37.59;32.93;40.53;;
46749;Laerm;33775;47.992;11.864;2022-08-03T10:47:56;37.59;29.92;40.62;;
46749;Laerm;33775;47.992;11.864;2022-08-03T10:50:23;37.59;31.68;40.23;;
46749;Laerm;33775;47.992;11.864;2022-08-03T10:52:55;37.65;32.93;40.33;;
46749;Laerm;33775;47.992;11.864;2022-08-03T10:58:13;37.58;32.00;40.53;;
46749;Laerm;33775;47.992;11.864;2022-08-03T11:00:47;37.57;32.58;40.43;;
46749;Laerm;33775;47.992;11.864;2022-08-03T11:03:12;37.59;32.93;40.23;;
46749;Laerm;33775;47.992;11.864;2022-08-03T11:14:04;37.64;32.35;40.23;;
46749;Laerm;33775;47.992;11.864;2022-08-03T11:16:39;37.61;32.93;40.43;;
46749;Laerm;33775;47.992;11.864;2022-08-03T11:19:09;37.60;32.93;40.62;;
46749;Laerm;33775;47.992;11.864;2022-08-03T11:24:42;37.59;32.93;40.53;;
46749;Laerm;33775;47.992;11.864;2022-08-03T11:27:39;37.63;33.44;40.43;;
46749;Laerm;33775;47.992;11.864;2022-08-03T11:30:33;37.61;33.44;40.43;;
46749;Laerm;33775;47.992;11.864;2022-08-03T11:35:14;37.57;32.93;40.33;;
46749;Laerm;33775;47.992;11.864;2022-08-03T11:43:01;37.53;32.35;40.23;;
46749;Laerm;33775;47.992;11.864;2022-08-03T11:45:27;37.48;32.35;40.33;;
46749;Laerm;33775;47.992;11.864;2022-08-03T11:47:55;37.53;32.93;40.43;;
46749;Laerm;33775;47.992;11.864;2022-08-03T11:50:22;37.54;32.35;40.33;;
46749;Laerm;33775;47.992;11.864;2022-08-03T11:52:48;37.53;31.68;40.23;;
46749;Laerm;33775;47.992;11.864;2022-08-03T11:55:15;37.58;31.68;40.43;;
46749;Laerm;33775;47.992;11.864;2022-08-03T11:57:41;37.54;32.35;40.23;;
46749;Laerm;33775;47.992;11.864;2022-08-03T12:02:53;37.50;32.93;40.62;;
46749;Laerm;33775;47.992;11.864;2022-08-03T12:05:18;37.39;31.68;39.92;;
46749;Laerm;33775;47.992;11.864;2022-08-03T12:07:45;37.33;31.68;40.33;;
46749;Laerm;33775;47.992;11.864;2022-08-03T12:10:13;37.39;32.93;40.03;;
46749;Laerm;33775;47.992;11.864;2022-08-03T12:12:39;37.36;30.89;40.23;;
46749;Laerm;33775;47.992;11.864;2022-08-03T12:15:05;37.42;32.35;40.13;;
46749;Laerm;33775;47.992;11.864;2022-08-03T12:17:34;37.41;32.93;40.71;;
46749;Laerm;33775;47.992;11.864;2022-08-03T12:20:00;37.50;32.58;40.23;;
46749;Laerm;33775;47.992;11.864;2022-08-03T12:22:32;37.48;32.35;40.43;;
46749;Laerm;33775;47.992;11.864;2022-08-03T12:24:57;37.47;32.93;40.13;;
46749;Laerm;33775;47.992;11.864;2022-08-03T12:27:23;37.45;31.68;40.23;;
46749;Laerm;33775;47.992;11.864;2022-08-03T12:29:52;37.46;31.68;40.23;;
46749;Laerm;33775;47.992;11.864;2022-08-03T12:32:18;37.43;32.93;40.62;;
46749;Laerm;33775;47.992;11.864;2022-08-03T12:34:43;37.46;32.35;40.33;;
46749;Laerm;33775;47.992;11.864;2022-08-03T12:37:09;37.44;32.93;40.33;;
46749;Laerm;33775;47.992;11.864;2022-08-03T12:39:34;37.46;32.35;40.03;;
46749;Laerm;33775;47.992;11.864;2022-08-03T12:41:59;37.46;31.68;40.03;;
46749;Laerm;33775;47.992;11.864;2022-08-03T12:44:32;37.39;32.35;40.53;;
46749;Laerm;33775;47.992;11.864;2022-08-03T12:46:57;37.46;30.89;40.13;;
46749;Laerm;33775;47.992;11.864;2022-08-03T12:49:23;37.42;32.35;40.43;;
46749;Laerm;33775;47.992;11.864;2022-08-03T12:54:17;37.39;31.68;40.62;;
46749;Laerm;33775;47.992;11.864;2022-08-03T12:59:27;37.38;30.89;43.77;;
46749;Laerm;33775;47.992;11.864;2022-08-03T13:01:52;37.37;31.68;40.23;;
46749;Laerm;33775;47.992;11.864;2022-08-03T13:04:30;37.40;30.89;40.43;;
46749;Laerm;33775;47.992;11.864;2022-08-03T13:07:00;37.39;31.68;40.43;;
46749;Laerm;33775;47.992;11.864;2022-08-03T13:09:25;37.41;32.93;40.43;;
46749;Laerm;33775;47.992;11.864;2022-08-03T13:12:07;37.41;32.93;40.03;;
46749;Laerm;33775;47.992;11.864;2022-08-03T13:14:33;37.44;32.93;40.62;;
46749;Laerm;33775;47.992;11.864;2022-08-03T13:16:58;37.40;32.93;40.13;;
46749;Laerm;33775;47.992;11.864;2022-08-03T13:19:23;37.37;32.35;40.03;;
46749;Laerm;33775;47.992;11.864;2022-08-03T13:21:49;37.36;30.89;42.41;;
46749;Laerm;33775;47.992;11.864;2022-08-03T13:24:14;37.33;31.68;40.23;;
46749;Laerm;33775;47.992;11.864;2022-08-03T13:26:39;37.30;31.68;40.62;;
46749;Laerm;33775;47.992;11.864;2022-08-03T13:29:04;37.34;32.35;40.23;;
46749;Laerm;33775;47.992;11.864;2022-08-03T13:31:30;37.34;32.93;40.71;;
46749;Laerm;33775;47.992;11.864;2022-08-03T13:33:55;37.33;32.93;40.33;;
46749;Laerm;33775;47.992;11.864;2022-08-03T13:36:20;37.33;32.35;40.33;;
46749;Laerm;33775;47.992;11.864;2022-08-03T13:38:45;37.35;32.35;40.13;;
46749;Laerm;33775;47.992;11.864;2022-08-03T13:41:10;37.36;31.68;40.23;;
46749;Laerm;33775;47.992;11.864;2022-08-03T13:43:36;37.37;33.44;40.33;;
46749;Laerm;33775;47.992;11.864;2022-08-03T13:46:01;37.36;32.00;42.59;;
46749;Laerm;33775;47.992;11.864;2022-08-03T13:48:26;37.33;32.00;40.43;;
46749;Laerm;33775;47.992;11.864;2022-08-03T13:50:51;37.29;31.68;40.23;;
46749;Laerm;33775;47.992;11.864;2022-08-03T13:53:16;37.29;31.68;40.03;;
46749;Laerm;33775;47.992;11.864;2022-08-03T13:55:41;37.26;32.93;40.62;;
46749;Laerm;33775;47.992;11.864;2022-08-03T13:58:07;37.32;32.35;40.62;;
46749;Laerm;33775;47.992;11.864;2022-08-03T14:00:36;37.27;32.35;40.13;;
46749;Laerm;33775;47.992;11.864;2022-08-03T14:03:01;37.23;29.92;40.33;;
46749;Laerm;33775;47.992;11.864;2022-08-03T14:05:26;37.22;31.68;40.23;;
46749;Laerm;33775;47.992;11.864;2022-08-03T14:07:52;37.26;32.00;40.13;;
46749;Laerm;33775;47.992;11.864;2022-08-03T14:10:17;37.24;32.35;39.92;;
46749;Laerm;33775;47.992;11.864;2022-08-03T14:12:43;37.24;32.93;40.33;;
46749;Laerm;33775;47.992;11.864;2022-08-03T14:15:08;37.22;32.93;40.23;;
46749;Laerm;33775;47.992;11.864;2022-08-03T14:17:34;37.21;31.68;40.43;;
46749;Laerm;33775;47.992;11.864;2022-08-03T14:20:00;37.22;31.68;40.23;;